Time;durP1;ratioP1;P1;durP2;ratioP2;P2;SDS_P1;SDS_P2;PMS_P1;PMS_P2;Temp;Humidity;BMP_temperature;BMP_pressure;BME280_temperature;BME280_humidity;BME280_pressure;Samples;Min_cycle;Max_cycle;Signal;HPM_P1;HPM_P2
2022/08/03 00:01:43;;;;;;;8.23;2.83;;;;;;;22.60;81.06;101406.31;5090537;28;20036;-52
2022/08/03 00:04:11;;;;;;;9.68;3.22;;;;;;;22.61;81.08;101405.19;5090596;28;20032;-52
2022/08/03 00:06:39;;;;;;;12.13;3.38;;;;;;;22.63;80.82;101404.81;5092847;28;20044;-56
2022/08/03 00:09:07;;;;;;;10.98;3.40;;;;;;;22.64;80.79;101403.69;5085244;28;20115;-55
2022/08/03 00:11:35;;;;;;;10.68;3.33;;;;;;;22.64;80.75;101403.69;5092079;28;20048;-57
2022/08/03 00:14:04;;;;;;;12.10;3.85;;;;;;;22.64;80.77;101403.69;5075497;28;20051;-56
2022/08/03 00:16:32;;;;;;;11.98;3.88;;;;;;;22.65;80.75;101402.53;5084796;28;20491;-57
2022/08/03 00:19:00;;;;;;;9.65;3.58;;;;;;;22.62;80.92;101408.75;5091018;28;20384;-55
2022/08/03 00:21:29;;;;;;;8.68;3.47;;;;;;;22.61;80.85;101409.91;5091571;28;20044;-55
2022/08/03 00:23:56;;;;;;;11.63;3.45;;;;;;;22.61;80.87;101404.34;5078095;28;20052;-55
2022/08/03 00:26:24;;;;;;;12.48;4.00;;;;;;;22.62;80.88;101403.22;5090266;28;20040;-56
2022/08/03 00:28:51;;;;;;;8.07;3.13;;;;;;;22.58;80.84;101407.78;5070798;28;20037;-52
2022/08/03 00:31:19;;;;;;;15.65;4.22;;;;;;;22.54;81.17;101405.69;5089071;28;20098;-51
2022/08/03 00:34:07;;;;;;;10.05;3.33;;;;;;;22.50;81.35;101401.97;5089003;28;20040;-53
2022/08/03 00:36:34;;;;;;;11.70;3.63;;;;;;;22.54;81.26;101402.91;5081277;28;20120;-51
2022/08/03 00:39:02;;;;;;;13.52;3.90;;;;;;;22.59;81.10;101403.88;5092375;28;20043;-52
2022/08/03 00:41:30;;;;;;;14.98;3.63;;;;;;;22.62;80.80;101397.66;5091487;28;20101;-51
2022/08/03 00:43:57;;;;;;;15.32;3.65;;;;;;;22.62;80.43;101397.66;5087764;28;20513;-53
2022/08/03 00:46:25;;;;;;;14.88;4.28;;;;;;;22.57;80.94;101395.06;5094780;28;20623;-51
2022/08/03 00:48:53;;;;;;;13.45;4.05;;;;;;;22.55;81.29;101404.53;5084566;28;20051;-51
2022/08/03 00:51:21;;;;;;;10.40;3.70;;;;;;;22.54;81.36;101391.81;5095886;28;20058;-51
2022/08/03 00:53:49;;;;;;;9.02;3.50;;;;;;;22.56;81.43;101394.22;5093886;28;20044;-50
2022/08/03 00:56:17;;;;;;;16.30;3.88;;;;;;;22.57;81.22;101397.84;5081639;28;20036;-54
2022/08/03 00:58:45;;;;;;;13.13;3.88;;;;;;;22.50;81.55;101384.47;5094891;28;20036;-50
2022/08/03 01:01:14;;;;;;;14.18;4.40;;;;;;;22.43;81.76;101396.09;5076702;28;20059;-51
2022/08/03 01:03:42;;;;;;;11.80;4.03;;;;;;;22.36;82.37;101389.47;5103613;28;20048;-51
2022/08/03 01:06:18;;;;;;;12.45;4.20;;;;;;;22.31;82.54;101384.91;5083878;28;20044;-52
2022/08/03 01:09:06;;;;;;;16.05;4.63;;;;;;;22.24;83.03;101376.28;5092174;28;20047;-52
2022/08/03 01:11:47;;;;;;;13.57;4.22;;;;;;;22.16;83.72;101383.47;5095733;28;20047;-54
2022/08/03 01:14:38;;;;;;;9.52;4.00;;;;;;;22.10;84.48;101382.03;5094187;28;20055;-56
2022/08/03 01:17:12;;;;;;;11.98;4.18;;;;;;;22.08;84.87;101379.59;5087397;28;20040;-54
2022/08/03 01:19:58;;;;;;;14.45;4.10;;;;;;;22.05;85.07;101371.91;5092092;28;20047;-53
2022/08/03 01:22:58;;;;;;;11.88;4.25;;;;;;;22.07;85.12;101377.94;5089228;28;20048;-55
2022/08/03 01:25:50;;;;;;;14.32;4.18;;;;;;;22.11;85.02;101376.16;5092229;28;20410;-56
2022/08/03 01:28:30;;;;;;;17.33;4.72;;;;;;;22.17;84.89;101370.41;5092516;28;20453;-54
2022/08/03 01:31:01;;;;;;;15.30;4.47;;;;;;;22.20;84.77;101375.28;5095110;28;20418;-56
2022/08/03 01:33:41;;;;;;;18.92;4.65;;;;;;;22.21;84.70;101376.97;5087289;28;20437;-51
2022/08/03 01:36:13;;;;;;;13.23;3.90;;;;;;;22.16;84.90;101380.69;5091660;28;20040;-53
2022/08/03 01:38:50;;;;;;;14.18;4.32;;;;;;;22.14;85.15;101377.44;5090455;28;20036;-56
2022/08/03 01:41:46;;;;;;;8.07;4.05;;;;;;;22.15;85.14;101373.50;5094754;28;20068;-56
2022/08/03 01:44:14;;;;;;;14.65;4.20;;;;;;;22.17;84.99;101375.97;5078255;28;20045;-56
2022/08/03 01:46:59;;;;;;;18.42;4.63;;;;;;;22.15;85.24;101379.06;5080284;28;20043;-57
2022/08/03 01:49:29;;;;;;;11.40;4.10;;;;;;;22.17;85.29;101370.41;5080746;28;20039;-56
2022/08/03 01:51:57;;;;;;;10.45;4.20;;;;;;;22.17;85.26;101364.84;5085551;28;20036;-56
2022/08/03 01:54:44;;;;;;;14.13;4.30;;;;;;;22.19;85.23;101368.13;5082173;28;20102;-56
2022/08/03 01:57:13;;;;;;;15.23;4.13;;;;;;;22.19;85.27;101368.13;5077662;28;20036;-56
2022/08/03 01:59:41;;;;;;;13.35;4.50;;;;;;;22.18;85.17;101370.09;5081320;28;20052;-56
2022/08/03 02:02:11;;;;;;;13.07;4.30;;;;;;;22.18;85.33;101367.31;5078431;28;20036;-56
2022/08/03 02:05:01;;;;;;;10.80;4.00;;;;;;;22.16;85.32;101363.25;5088523;28;20502;-56
2022/08/03 02:07:29;;;;;;;12.98;4.60;;;;;;;22.13;85.70;101370.28;5086613;28;20048;-57
2022/08/03 02:09:57;;;;;;;14.27;4.80;;;;;;;22.13;85.71;101364.72;5080282;28;20063;-53
2022/08/03 02:12:26;;;;;;;11.57;4.72;;;;;;;22.12;85.76;101363.09;5079796;28;20394;-54
2022/08/03 02:14:55;;;;;;;9.48;4.45;;;;;;;22.09;85.89;101363.75;5070249;28;20123;-51
2022/08/03 02:17:25;;;;;;;13.32;4.22;;;;;;;22.09;85.96;101359.00;5081142;28;20043;-55
2022/08/03 02:20:08;;;;;;;13.55;3.92;;;;;;;22.10;85.99;101365.38;5093502;28;20066;-56
2022/08/03 02:22:37;;;;;;;14.82;4.20;;;;;;;22.09;85.78;101353.47;5084514;28;20499;-52
2022/08/03 02:25:06;;;;;;;11.63;4.78;;;;;;;22.09;85.69;101367.34;5086004;28;20039;-54
2022/08/03 02:27:35;;;;;;;10.52;3.35;;;;;;;22.09;85.62;101358.19;5084232;28;20043;-55
2022/08/03 02:30:10;;;;;;;11.85;4.10;;;;;;;22.09;85.01;101359.00;5097754;28;20068;-50
2022/08/03 02:32:40;;;;;;;9.88;3.92;;;;;;;22.09;85.48;101353.47;5093567;28;20098;-54
2022/08/03 02:35:12;;;;;;;10.93;3.90;;;;;;;22.09;85.37;101349.88;5090978;28;20498;-52
2022/08/03 02:37:49;;;;;;;9.32;4.32;;;;;;;22.08;85.29;101351.00;5088568;28;20052;-53
2022/08/03 02:40:19;;;;;;;10.88;4.00;;;;;;;22.07;85.38;101352.97;5056447;28;20052;-52
2022/08/03 02:42:50;;;;;;;13.50;4.30;;;;;;;22.06;85.49;101348.59;5092957;28;20510;-53
2022/08/03 02:45:19;;;;;;;11.20;3.72;;;;;;;22.05;85.38;101346.13;5082845;28;20060;-50
2022/08/03 02:47:47;;;;;;;12.90;3.67;;;;;;;22.03;85.32;101346.50;5081062;28;20047;-57
2022/08/03 02:50:22;;;;;;;10.15;3.42;;;;;;;22.03;84.81;101342.88;5078086;28;20071;-58
2022/08/03 02:52:51;;;;;;;11.95;4.20;;;;;;;22.01;85.07;101346.00;5092429;28;20032;-57
2022/08/03 02:55:21;;;;;;;10.00;4.18;;;;;;;22.00;85.36;101341.59;5091322;28;20036;-54
2022/08/03 02:57:49;;;;;;;9.02;3.90;;;;;;;21.99;85.32;101337.19;5092273;28;20052;-58
2022/08/03 03:00:17;;;;;;;8.98;3.72;;;;;;;21.98;85.48;101343.88;5091537;28;20036;-56
2022/08/03 03:02:57;;;;;;;9.80;3.45;;;;;;;21.96;85.56;101340.63;5075702;28;20032;-57
2022/08/03 03:05:26;;;;;;;12.10;3.60;;;;;;;21.95;85.68;101352.88;5076334;28;20045;-57
2022/08/03 03:08:19;;;;;;;14.02;3.70;;;;;;;21.94;85.03;101342.13;5087603;28;20040;-54
2022/08/03 03:10:59;;;;;;;11.48;3.85;;;;;;;21.92;85.09;101340.47;5072625;28;20032;-57
2022/08/03 03:13:30;;;;;;;9.95;3.75;;;;;;;21.91;85.23;101338.84;5087959;28;20058;-54
2022/08/03 03:16:01;;;;;;;9.07;3.80;;;;;;;21.90;85.40;101333.63;5084958;28;20052;-56
2022/08/03 03:18:30;;;;;;;9.93;3.67;;;;;;;21.88;85.33;101345.06;5092925;28;20555;-57
2022/08/03 03:20:59;;;;;;;9.35;3.60;;;;;;;21.87;85.35;101343.44;5092493;28;20040;-53
2022/08/03 03:23:28;;;;;;;13.77;4.28;;;;;;;21.86;85.68;101344.59;5093142;28;20040;-57
2022/08/03 03:25:57;;;;;;;8.13;3.47;;;;;;;21.85;85.33;101342.13;5081200;28;20055;-56
2022/08/03 03:28:25;;;;;;;10.93;3.38;;;;;;;21.85;84.98;101348.50;5079167;28;20054;-56
2022/08/03 03:30:52;;;;;;;8.75;3.70;;;;;;;21.85;85.28;101342.13;5090625;28;20048;-54
2022/08/03 03:33:21;;;;;;;8.95;3.60;;;;;;;21.85;84.72;101342.13;5092215;28;20043;-57
2022/08/03 03:35:50;;;;;;;10.45;4.10;;;;;;;21.84;85.11;101346.03;5093063;28;20043;-53
2022/08/03 03:38:19;;;;;;;12.38;3.33;;;;;;;21.82;84.92;101345.59;5089214;28;20044;-57
2022/08/03 03:40:47;;;;;;;9.88;3.40;;;;;;;21.81;84.93;101346.72;5066602;28;20033;-55
2022/08/03 03:43:15;;;;;;;10.85;3.90;;;;;;;21.79;84.96;101337.91;5092158;28;20051;-57
2022/08/03 03:45:44;;;;;;;11.98;3.80;;;;;;;21.77;85.18;101338.25;5091750;28;20052;-56
2022/08/03 03:48:11;;;;;;;9.98;3.53;;;;;;;21.76;85.11;101339.38;5088960;28;20032;-55
2022/08/03 03:50:39;;;;;;;9.73;3.40;;;;;;;21.73;85.33;101337.28;5080316;28;20040;-53
2022/08/03 03:53:12;;;;;;;7.78;3.72;;;;;;;21.72;85.71;101338.44;5079885;28;20066;-55
2022/08/03 03:55:40;;;;;;;7.65;3.40;;;;;;;21.72;85.48;101337.59;5093193;28;20051;-54
2022/08/03 03:58:27;;;;;;;9.43;4.00;;;;;;;21.67;85.84;101341.38;5088265;28;20037;-55
2022/08/03 04:00:55;;;;;;;10.18;4.10;;;;;;;21.61;86.40;101335.19;5086742;28;20044;-51
2022/08/03 04:03:23;;;;;;;12.30;3.97;;;;;;;21.56;87.00;101338.16;5083421;28;20067;-55
2022/08/03 04:11:39;;;;;;;10.57;4.25;;;;;;;21.52;87.09;101334.41;5087792;28;20151;-49
2022/08/03 04:14:08;;;;;;;8.02;3.60;;;;;;;21.53;86.89;101338.81;5092282;28;20056;-50
2022/08/03 04:16:40;;;;;;;11.68;4.00;;;;;;;21.54;86.87;101332.13;5093472;28;20048;-48
2022/08/03 04:19:15;;;;;;;9.40;3.50;;;;;;;21.54;86.73;101337.66;5086386;28;20037;-52
2022/08/03 04:21:51;;;;;;;9.40;3.67;;;;;;;21.54;86.77;101343.19;5076554;28;20043;-56
2022/08/03 04:24:20;;;;;;;11.07;3.88;;;;;;;21.53;86.87;101336.03;5094562;28;20517;-55
2022/08/03 04:26:53;;;;;;;13.05;4.57;;;;;;;21.53;86.84;101336.03;5095592;28;20418;-54
2022/08/03 04:29:22;;;;;;;12.73;3.92;;;;;;;21.52;87.01;101337.16;5079529;28;20036;-55
2022/08/03 04:31:50;;;;;;;13.88;4.30;;;;;;;21.49;87.05;101338.66;5093814;28;20051;-54
2022/08/03 04:34:18;;;;;;;9.77;4.05;;;;;;;21.49;87.17;101337.84;5096430;28;20040;-55
2022/08/03 04:36:49;;;;;;;9.88;3.50;;;;;;;21.47;87.00;101340.94;5094751;28;20040;-51
2022/08/03 04:39:26;;;;;;;9.27;3.53;;;;;;;21.48;86.74;101339.00;5094938;28;20036;-51
2022/08/03 04:41:56;;;;;;;8.80;3.38;;;;;;;21.50;86.29;101342.22;5087159;28;20414;-52
2022/08/03 04:44:40;;;;;;;11.40;3.95;;;;;;;21.51;86.26;101343.06;5084496;28;20044;-52
2022/08/03 04:47:08;;;;;;;11.50;4.10;;;;;;;21.48;86.64;101345.34;5094611;28;20044;-53
2022/08/03 04:49:37;;;;;;;8.93;3.95;;;;;;;21.48;86.57;101339.81;5095862;28;20036;-56
2022/08/03 04:52:07;;;;;;;10.75;4.10;;;;;;;21.47;86.76;101345.66;5064741;28;20519;-56
2022/08/03 04:54:42;;;;;;;12.75;4.40;;;;;;;21.47;86.79;101351.22;5075685;28;20503;-57
2022/08/03 04:57:17;;;;;;;14.23;3.72;;;;;;;21.46;86.93;101349.59;5092711;28;20113;-51
2022/08/03 04:59:54;;;;;;;10.95;4.00;;;;;;;21.48;86.23;101352.84;5094449;28;20055;-52
2022/08/03 05:02:31;;;;;;;9.35;4.00;;;;;;;21.47;86.34;101354.78;5092000;28;20044;-55
2022/08/03 05:04:59;;;;;;;9.05;4.00;;;;;;;21.48;85.78;101355.63;5092551;28;20047;-54
2022/08/03 05:07:26;;;;;;;9.55;3.65;;;;;;;21.50;84.85;101353.31;5081443;28;20048;-54
2022/08/03 05:10:08;;;;;;;9.27;3.72;;;;;;;21.48;85.37;101356.44;5083525;28;20040;-51
2022/08/03 05:12:44;;;;;;;9.65;3.90;;;;;;;21.47;85.68;101359.53;5093239;28;20036;-50
2022/08/03 05:15:12;;;;;;;9.73;3.90;;;;;;;21.47;85.97;101353.97;5095490;28;20433;-55
2022/08/03 05:17:40;;;;;;;9.65;3.92;;;;;;;21.49;85.41;101371.09;5094727;28;20055;-51
2022/08/03 05:20:08;;;;;;;13.02;4.00;;;;;;;21.51;85.46;101366.06;5090424;28;20047;-53
2022/08/03 05:22:36;;;;;;;10.82;4.03;;;;;;;21.53;85.20;101369.31;5093697;28;20040;-57
2022/08/03 05:25:04;;;;;;;13.85;4.25;;;;;;;21.57;84.64;101375.00;5095349;28;20372;-54
2022/08/03 05:27:31;;;;;;;11.90;4.10;;;;;;;21.58;84.89;101371.09;5088031;28;20084;-54
2022/08/03 05:29:59;;;;;;;9.98;4.18;;;;;;;21.60;83.63;101375.19;5094708;28;20040;-53
2022/08/03 05:32:47;;;;;;;12.65;3.92;;;;;;;21.60;83.83;101383.50;4386395;28;10001098;-54
2022/08/03 05:35:14;;;;;;;13.55;3.95;;;;;;;21.60;84.40;101391.81;5091078;28;20129;-51
2022/08/03 05:38:02;;;;;;;12.65;4.15;;;;;;;21.58;84.57;101388.56;5078248;28;20040;-52
2022/08/03 05:40:30;;;;;;;11.00;3.85;;;;;;;21.59;84.57;101392.94;5082344;28;20060;-49
2022/08/03 05:42:58;;;;;;;11.43;3.75;;;;;;;21.59;84.59;101378.25;5075131;28;20070;-50
2022/08/03 05:45:26;;;;;;;10.20;3.80;;;;;;;21.59;84.60;101390.16;5089289;28;20040;-53
2022/08/03 05:47:55;;;;;;;10.23;3.35;;;;;;;21.61;84.10;101382.34;5087414;28;20105;-51
2022/08/03 05:50:22;;;;;;;13.10;4.60;;;;;;;21.65;83.68;101386.09;5080344;28;20039;-52
2022/08/03 05:52:53;;;;;;;17.45;4.85;;;;;;;21.65;83.89;101388.06;5090053;28;20044;-51
2022/08/03 05:55:21;;;;;;;13.68;4.60;;;;;;;21.66;83.10;101384.94;5082895;28;20463;-52
2022/08/03 05:57:49;;;;;;;9.57;3.55;;;;;;;21.66;83.08;101384.94;5084373;28;20048;-54
2022/08/03 06:00:17;;;;;;;12.10;4.03;;;;;;;21.67;83.77;101386.56;5088528;28;20048;-56
2022/08/03 06:02:45;;;;;;;16.45;3.58;;;;;;;21.70;83.11;101380.38;5086779;28;20044;-53
2022/08/03 06:05:13;;;;;;;9.00;3.67;;;;;;;21.72;83.39;101384.75;5085826;28;20063;-54
2022/08/03 06:07:41;;;;;;;11.70;3.58;;;;;;;21.74;83.13;101386.06;5087223;28;20119;-54
2022/08/03 06:10:08;;;;;;;15.45;4.28;;;;;;;21.77;82.87;101381.81;5090855;28;20406;-57
2022/08/03 06:12:56;;;;;;;15.90;4.20;;;;;;;21.79;83.31;101382.28;5079735;28;20052;-56
2022/08/03 06:15:24;;;;;;;13.18;3.40;;;;;;;21.81;82.04;101391.91;5085795;28;20039;-57
2022/08/03 06:17:52;;;;;;;12.20;3.83;;;;;;;21.81;82.73;101389.13;5087333;28;20126;-56
2022/08/03 06:20:21;;;;;;;11.57;4.10;;;;;;;21.85;81.70;101386.53;5087155;28;20051;-54
2022/08/03 06:22:53;;;;;;;10.52;3.92;;;;;;;21.87;81.85;101389.78;5083118;28;20047;-50
2022/08/03 06:25:27;;;;;;;10.63;3.90;;;;;;;21.91;81.38;101390.75;5087742;28;20037;-54
2022/08/03 06:27:55;;;;;;;9.95;3.75;;;;;;;21.91;81.51;101393.50;5090449;28;20063;-55
2022/08/03 06:30:23;;;;;;;16.85;4.57;;;;;;;21.93;81.83;101396.78;5093961;28;20402;-51
2022/08/03 06:32:51;;;;;;;9.88;4.20;;;;;;;21.91;81.81;101385.19;5097474;28;20067;-55
2022/08/03 06:35:19;;;;;;;14.90;4.72;;;;;;;21.92;82.03;101392.38;5085322;28;20107;-53
2022/08/03 06:37:49;;;;;;;10.23;3.75;;;;;;;21.94;81.24;101400.38;5091174;28;20093;-50
2022/08/03 06:40:19;;;;;;;15.00;3.97;;;;;;;21.92;81.45;101397.94;5093447;28;20461;-52
2022/08/03 06:42:50;;;;;;;13.45;4.13;;;;;;;21.89;81.90;101398.59;5089949;28;20042;-53
2022/08/03 06:45:18;;;;;;;20.25;5.00;;;;;;;21.85;81.93;101394.84;5082669;28;20036;-54
2022/08/03 06:47:46;;;;;;;13.85;4.07;;;;;;;21.83;81.87;101395.16;5091987;28;20044;-54
2022/08/03 06:50:13;;;;;;;17.58;3.92;;;;;;;21.83;81.53;101405.47;5099012;28;20035;-51
2022/08/03 06:52:44;;;;;;;16.02;3.45;;;;;;;21.82;80.87;101409.41;5093650;28;20050;-56
2022/08/03 06:55:12;;;;;;;14.85;3.72;;;;;;;21.82;81.00;101399.09;5093278;28;20054;-56
2022/08/03 06:57:40;;;;;;;21.25;5.55;;;;;;;21.85;80.67;101403.97;5087757;28;20040;-55
2022/08/03 07:00:08;;;;;;;17.90;3.97;;;;;;;21.89;80.80;101398.59;5093068;28;20040;-57
2022/08/03 07:02:39;;;;;;;18.55;4.63;;;;;;;21.89;80.47;101399.41;5093206;28;20046;-55
2022/08/03 07:05:08;;;;;;;14.32;4.47;;;;;;;21.92;80.49;101397.94;5091144;28;20040;-56
2022/08/03 07:07:36;;;;;;;10.90;2.92;;;;;;;21.95;80.26;101407.56;5091832;28;20119;-55
2022/08/03 07:10:05;;;;;;;15.18;3.90;;;;;;;21.94;80.11;101403.97;5083807;28;20040;-55
2022/08/03 07:12:33;;;;;;;14.02;3.63;;;;;;;21.97;80.00;101408.03;5071554;28;20047;-55
2022/08/03 07:15:01;;;;;;;10.90;3.65;;;;;;;22.01;80.06;101411.78;5077343;28;20047;-55
2022/08/03 07:17:32;;;;;;;11.77;3.20;;;;;;;22.02;80.00;101405.09;5091846;28;20071;-57
2022/08/03 07:20:03;;;;;;;14.88;3.83;;;;;;;22.07;79.74;101411.25;5091890;28;20079;-55
2022/08/03 07:22:30;;;;;;;16.85;3.78;;;;;;;22.13;79.52;101418.28;5092225;28;20083;-57
2022/08/03 07:24:58;;;;;;;15.15;3.65;;;;;;;22.19;78.46;101418.09;5085124;28;20067;-55
2022/08/03 07:27:27;;;;;;;12.30;3.53;;;;;;;22.18;78.74;101417.28;5093014;28;20050;-54
2022/08/03 07:29:56;;;;;;;17.38;4.50;;;;;;;22.15;78.28;101419.88;5091869;28;20119;-54
2022/08/03 07:32:24;;;;;;;18.42;4.13;;;;;;;22.13;78.43;101418.28;5079387;28;20047;-55
2022/08/03 07:34:52;;;;;;;15.18;3.25;;;;;;;22.15;78.28;101422.66;5083309;28;20052;-53
2022/08/03 07:37:28;;;;;;;15.57;3.15;;;;;;;22.17;78.55;101426.72;5090707;28;20506;-53
2022/08/03 07:39:56;;;;;;;21.13;3.90;;;;;;;22.21;78.84;101424.97;5089399;28;20042;-52
2022/08/03 07:42:23;;;;;;;12.50;3.22;;;;;;;22.25;77.94;101420.38;5092928;28;20402;-52
2022/08/03 07:44:51;;;;;;;16.58;3.83;;;;;;;22.26;77.85;101424.78;5082806;28;20055;-52
2022/08/03 07:47:23;;;;;;;15.35;3.72;;;;;;;22.28;77.53;101419.72;5088521;28;20043;-55
2022/08/03 07:49:51;;;;;;;21.25;4.22;;;;;;;22.28;77.50;101416.13;5084909;28;20086;-52
2022/08/03 07:55:07;;;;;;;22.75;4.45;;;;;;;22.29;77.62;101417.75;5083810;28;20120;-54
2022/08/03 07:57:34;;;;;;;19.33;4.30;;;;;;;22.33;77.70;101413.97;5094133;28;20036;-54
2022/08/03 08:00:12;;;;;;;26.50;4.15;;;;;;;22.37;77.40;101419.69;5096827;28;20048;-54
2022/08/03 08:02:40;;;;;;;11.88;3.50;;;;;;;22.42;77.31;101416.72;5098277;28;20032;-52
2022/08/03 08:05:09;;;;;;;12.68;3.63;;;;;;;22.46;76.68;101405.72;5086662;28;20063;-56
2022/08/03 08:07:38;;;;;;;15.55;3.42;;;;;;;22.50;76.42;101420.59;5071102;28;20074;-51
2022/08/03 08:10:08;;;;;;;15.35;3.85;;;;;;;22.50;75.96;101413.06;5095379;28;20508;-55
2022/08/03 08:12:37;;;;;;;16.20;3.72;;;;;;;22.50;76.19;101404.72;5094184;28;20046;-54
2022/08/03 08:15:06;;;;;;;13.82;3.47;;;;;;;22.54;76.36;101408.47;5092018;28;20040;-56
2022/08/03 08:17:45;;;;;;;13.50;3.08;;;;;;;22.59;75.39;101409.44;5093425;28;20048;-55
2022/08/03 08:20:21;;;;;;;13.88;3.67;;;;;;;22.65;75.27;101408.09;5094442;28;20127;-51
2022/08/03 08:22:58;;;;;;;18.65;3.53;;;;;;;22.70;74.89;101414.25;5096107;28;20035;-54
2022/08/03 08:25:29;;;;;;;13.05;3.15;;;;;;;22.73;74.28;101407.22;5084272;28;20058;-52
2022/08/03 08:28:01;;;;;;;15.10;3.53;;;;;;;22.76;73.77;101412.13;5092363;28;20111;-52
2022/08/03 08:30:49;;;;;;;14.23;3.83;;;;;;;22.80;73.31;101410.28;5083480;28;20387;-51
2022/08/03 08:33:17;;;;;;;18.02;3.45;;;;;;;22.84;73.31;101416.78;5095456;28;20032;-56
2022/08/03 08:35:51;;;;;;;13.98;3.53;;;;;;;22.86;73.67;101414.47;5082908;28;20074;-54
2022/08/03 08:38:20;;;;;;;17.10;4.18;;;;;;;22.88;73.51;101412.19;5081774;28;20110;-51
2022/08/03 08:40:49;;;;;;;23.88;4.28;;;;;;;22.91;73.19;101417.06;5090012;28;20044;-55
2022/08/03 08:43:16;;;;;;;17.67;4.18;;;;;;;22.93;74.02;101413.97;5084151;28;20060;-52
2022/08/03 08:45:44;;;;;;;15.43;3.83;;;;;;;22.96;73.33;101414.09;5089580;28;20032;-50
2022/08/03 08:48:13;;;;;;;16.02;3.53;;;;;;;23.00;73.46;101411.50;5095379;28;20066;-52
2022/08/03 08:50:41;;;;;;;8.68;3.22;;;;;;;23.05;73.11;101408.50;5094516;28;20054;-51
2022/08/03 08:53:11;;;;;;;11.68;3.35;;;;;;;23.09;72.74;101411.41;5069589;28;20040;-52
2022/08/03 08:55:46;;;;;;;9.13;3.33;;;;;;;23.15;72.15;101410.06;5092540;28;20561;-54
2022/08/03 08:58:28;;;;;;;16.90;3.70;;;;;;;23.18;71.63;101406.59;5087063;28;20083;-54
2022/08/03 09:00:55;;;;;;;13.95;3.42;;;;;;;23.20;71.14;101407.06;5091757;28;20044;-54
2022/08/03 09:03:23;;;;;;;13.80;3.92;;;;;;;23.24;70.93;101412.78;5094188;28;20448;-55
2022/08/03 09:06:00;;;;;;;18.60;3.35;;;;;;;23.28;70.33;101399.81;5093657;28;20040;-52
2022/08/03 09:08:30;;;;;;;18.27;3.70;;;;;;;23.30;70.06;101406.66;5094008;28;20044;-56
2022/08/03 09:10:59;;;;;;;16.08;3.25;;;;;;;23.36;69.57;101402.53;5095655;28;20046;-55
2022/08/03 09:13:27;;;;;;;16.67;3.00;;;;;;;23.41;69.51;101406.25;5093883;28;20510;-59
2022/08/03 09:16:16;;;;;;;13.30;3.63;;;;;;;23.43;69.81;101415.03;5076701;28;20044;-57
2022/08/03 09:18:45;;;;;;;9.98;3.17;;;;;;;23.48;69.87;101410.09;5089840;28;20040;-60
2022/08/03 09:21:23;;;;;;;16.80;3.50;;;;;;;23.51;69.06;101405.81;5094318;28;20398;-55
2022/08/03 09:24:00;;;;;;;16.50;3.20;;;;;;;23.54;67.93;101408.72;5093392;28;20044;-56
2022/08/03 09:26:33;;;;;;;14.20;3.17;;;;;;;23.57;67.83;101410.84;5117795;22;20166;-57
2022/08/03 09:29:09;;;;;;;16.67;3.60;;;;;;;23.60;68.35;101403.78;5094599;28;20048;-55
2022/08/03 09:31:43;;;;;;;12.30;3.72;;;;;;;23.66;68.22;101407.16;5092886;28;20068;-54
2022/08/03 09:34:13;;;;;;;14.73;4.20;;;;;;;23.69;68.03;101401.72;5069945;28;20517;-56
2022/08/03 09:36:46;;;;;;;21.05;4.60;;;;;;;23.74;67.32;101397.91;5094903;28;20044;-54
2022/08/03 09:39:17;;;;;;;17.73;3.70;;;;;;;23.78;66.75;101405.22;5080664;28;20040;-59
2022/08/03 09:42:04;;;;;;;15.30;3.58;;;;;;;23.83;66.60;101403.41;5066443;28;20044;-59
2022/08/03 09:44:37;;;;;;;19.70;3.90;;;;;;;23.88;65.57;101408.75;5062321;28;20044;-57
2022/08/03 09:47:05;;;;;;;20.90;3.50;;;;;;;23.92;64.58;101416.06;5089073;28;20044;-61
2022/08/03 09:49:32;;;;;;;26.15;4.00;;;;;;;23.98;64.35;101402.72;5074745;28;20048;-56
2022/08/03 09:52:02;;;;;;;19.20;4.28;;;;;;;24.03;64.75;101408.09;5074334;28;20153;-54
2022/08/03 09:54:52;;;;;;;21.20;4.20;;;;;;;24.10;64.44;101404.72;5059366;28;20044;-56
2022/08/03 09:57:22;;;;;;;16.98;3.67;;;;;;;24.13;64.78;101399.28;5051045;28;20040;-55
2022/08/03 09:59:51;;;;;;;16.42;4.40;;;;;;;24.20;64.65;101405.09;5069254;28;20048;-59
2022/08/03 10:02:40;;;;;;;17.08;4.47;;;;;;;24.28;64.24;101408.09;5057238;28;20056;-55
2022/08/03 10:05:09;;;;;;;15.35;4.18;;;;;;;24.32;64.33;101395.13;5073931;28;20054;-58
2022/08/03 10:07:48;;;;;;;20.55;4.53;;;;;;;24.39;62.87;101400.91;5055440;28;20036;-58
2022/08/03 10:10:17;;;;;;;23.38;4.43;;;;;;;24.45;62.58;101405.91;5048101;28;20064;-59
2022/08/03 10:12:59;;;;;;;16.45;3.80;;;;;;;24.47;62.87;101402.81;5058207;28;20042;-57
2022/08/03 10:15:27;;;;;;;18.63;4.70;;;;;;;24.47;63.17;101402.81;5074728;28;20036;-51
2022/08/03 10:18:15;;;;;;;19.95;5.20;;;;;;;24.49;63.75;101400.47;5072187;28;20095;-58
2022/08/03 10:20:50;;;;;;;22.17;5.25;;;;;;;24.53;62.79;101397.78;5055138;28;20075;-59
2022/08/03 10:23:20;;;;;;;21.27;4.88;;;;;;;24.61;61.23;101400.47;5073555;28;20052;-59
2022/08/03 10:25:54;;;;;;;25.73;4.32;;;;;;;24.66;60.67;101399.44;5074035;28;20064;-55
2022/08/03 10:28:21;;;;;;;19.35;4.47;;;;;;;24.68;60.59;101388.75;5054766;28;20422;-55
2022/08/03 10:30:52;;;;;;;19.75;4.95;;;;;;;24.73;61.01;101387.69;5072842;28;20075;-59
2022/08/03 10:33:23;;;;;;;22.98;4.90;;;;;;;24.79;60.29;101391.84;5073706;28;20042;-57
2022/08/03 10:36:11;;;;;;;17.77;4.45;;;;;;;24.84;60.43;101394.38;5062003;28;20055;-57
2022/08/03 10:38:51;;;;;;;21.45;4.88;;;;;;;24.85;60.49;101380.13;5053860;28;20037;-58
2022/08/03 10:41:21;;;;;;;24.40;4.97;;;;;;;24.90;60.06;101390.22;5043758;28;20050;-59
2022/08/03 10:43:56;;;;;;;19.30;4.68;;;;;;;24.89;60.51;101391.34;5053968;28;20051;-56
2022/08/03 10:46:25;;;;;;;20.03;5.03;;;;;;;24.91;60.19;101380.66;5073421;28;20111;-59
2022/08/03 10:48:53;;;;;;;20.38;4.95;;;;;;;24.92;60.19;101373.94;4352349;28;10000927;-58
2022/08/03 10:51:21;;;;;;;21.33;6.10;;;;;;;24.96;59.86;101385.19;5051255;28;20128;-51
2022/08/03 10:53:49;;;;;;;21.95;4.70;;;;;;;25.06;59.20;101381.91;5038754;28;20044;-57
2022/08/03 10:59:47;;;;;;;20.75;4.20;;;;;;;25.18;58.12;101367.13;5069969;28;20040;-54
2022/08/03 11:02:15;;;;;;;23.35;5.47;;;;;;;25.23;57.88;101362.13;5069881;28;20044;-54
2022/08/03 11:04:46;;;;;;;25.48;5.03;;;;;;;25.27;56.45;101357.44;5070208;28;20040;-56
2022/08/03 11:07:23;;;;;;;25.40;5.18;;;;;;;25.34;56.40;101356.03;5069527;28;20037;-56
2022/08/03 11:09:53;;;;;;;26.60;5.10;;;;;;;25.40;56.61;101363.81;5052358;28;20041;-53
2022/08/03 11:12:28;;;;;;;18.70;4.30;;;;;;;25.42;56.62;101355.88;5069890;28;20128;-58
2022/08/03 11:15:00;;;;;;;19.90;4.65;;;;;;;25.43;56.59;101357.50;5070317;28;20451;-56
2022/08/03 11:17:28;;;;;;;23.92;5.20;;;;;;;25.45;56.32;101352.38;5052513;28;20045;-57
2022/08/03 11:19:57;;;;;;;29.02;5.15;;;;;;;25.51;56.38;101352.91;5069247;28;20045;-56
2022/08/03 11:22:27;;;;;;;22.20;4.57;;;;;;;25.56;55.43;101343.47;5052833;28;20040;-56
2022/08/03 11:24:56;;;;;;;27.88;4.78;;;;;;;25.60;54.90;101347.19;5051999;28;20113;-55
2022/08/03 11:27:26;;;;;;;20.95;4.10;;;;;;;25.62;54.99;101344.84;5051678;28;20055;-53
2022/08/03 11:29:55;;;;;;;31.50;4.82;;;;;;;25.64;54.97;101348.91;5069944;28;20071;-54
2022/08/03 11:32:43;;;;;;;22.25;4.40;;;;;;;25.69;54.28;101351.44;5070006;28;20045;-54
2022/08/03 11:35:19;;;;;;;15.82;4.10;;;;;;;25.72;53.79;101359.06;5059434;28;20063;-56
2022/08/03 11:37:56;;;;;;;12.68;3.45;;;;;;;25.71;53.98;101357.47;5069363;28;20466;-56
2022/08/03 11:40:34;;;;;;;17.88;3.92;;;;;;;25.79;54.03;101352.88;5069794;28;20523;-58
2022/08/03 11:43:03;;;;;;;21.02;4.47;;;;;;;25.83;54.20;101353.78;5069713;28;20121;-54
2022/08/03 11:45:30;;;;;;;16.95;4.32;;;;;;;25.88;53.94;101359.13;5051280;28;20050;-53
2022/08/03 11:48:01;;;;;;;17.83;4.40;;;;;;;25.85;54.06;101359.78;5067948;28;20047;-54
2022/08/03 11:50:36;;;;;;;13.05;3.72;;;;;;;25.95;53.60;101352.91;5067067;28;20822;-51
2022/08/03 11:53:06;;;;;;;19.02;4.40;;;;;;;25.96;53.44;101342.56;5051572;28;20060;-53